createdAt,value
2022-12-26T00:01:07.934Z,6.60
2022-12-26T00:03:35.839Z,7.57
2022-12-26T00:06:05.348Z,6.72
2022-12-26T00:08:32.899Z,7.05
2022-12-26T00:11:00.477Z,6.15
2022-12-26T00:13:39.914Z,6.93
2022-12-26T00:16:10.735Z,7.53
2022-12-26T00:18:38.562Z,7.10
2022-12-26T00:21:07.905Z,6.80
2022-12-26T00:23:35.952Z,7.53
2022-12-26T00:26:04.567Z,6.68
2022-12-26T00:28:32.191Z,6.63
2022-12-26T00:30:59.723Z,6.88
2022-12-26T00:33:28.083Z,7.90
2022-12-26T00:35:55.547Z,6.63
2022-12-26T00:38:24.995Z,5.97
2022-12-26T00:40:54.430Z,5.68
2022-12-26T00:43:21.938Z,5.00
2022-12-26T00:45:49.730Z,5.47
2022-12-26T00:48:17.250Z,5.93
2022-12-26T00:50:44.943Z,6.30
2022-12-26T00:53:12.510Z,5.85
2022-12-26T00:55:41.485Z,5.45
2022-12-26T00:58:09.179Z,6.72
2022-12-26T01:00:36.800Z,5.32
2022-12-26T01:03:04.607Z,5.35
2022-12-26T01:05:32.161Z,5.80
2022-12-26T01:08:20.209Z,5.90
2022-12-26T01:10:48.617Z,6.97
2022-12-26T01:13:16.602Z,5.97
2022-12-26T01:15:48.510Z,6.40
2022-12-26T01:18:15.977Z,5.35
2022-12-26T01:20:43.493Z,5.35
2022-12-26T01:23:10.963Z,6.22
2022-12-26T01:26:18.729Z,6.18
2022-12-26T01:28:28.472Z,6.30
2022-12-26T01:30:55.975Z,5.05
2022-12-26T01:33:23.471Z,6.22
2022-12-26T01:35:51.757Z,6.95
2022-12-26T01:38:19.377Z,5.88
2022-12-26T01:40:46.969Z,5.63
2022-12-26T01:43:14.990Z,5.72
2022-12-26T01:45:44.265Z,5.63
2022-12-26T01:48:16.138Z,6.22
2022-12-26T01:50:46.506Z,5.32
2022-12-26T01:53:15.814Z,5.10
2022-12-26T01:55:47.111Z,5.32
2022-12-26T01:58:18.428Z,5.45
2022-12-26T02:00:47.734Z,5.65
2022-12-26T02:03:32.809Z,6.22
2022-12-26T02:06:01.885Z,5.25
2022-12-26T02:08:30.247Z,5.30
2022-12-26T02:10:59.953Z,5.63
2022-12-26T02:13:28.490Z,5.80
2022-12-26T02:15:57.614Z,6.82
2022-12-26T02:18:25.159Z,5.32
2022-12-26T02:20:59.546Z,5.38
2022-12-26T02:23:44.667Z,4.60
2022-12-26T02:26:29.892Z,5.78
2022-12-26T02:29:15.189Z,6.20
2022-12-26T02:31:47.526Z,5.28
2022-12-26T02:34:16.752Z,5.22
2022-12-26T02:36:51.890Z,5.43
2022-12-26T02:39:43.717Z,5.50
2022-12-26T02:42:17.833Z,5.20
2022-12-26T02:45:10.783Z,4.95
2022-12-26T02:47:44.788Z,5.18
2022-12-26T02:50:33.520Z,5.07
2022-12-26T02:53:25.742Z,5.32
2022-12-26T02:56:13.076Z,5.25
2022-12-26T02:59:01.378Z,5.05
2022-12-26T03:01:48.924Z,5.40
2022-12-26T03:04:37.494Z,4.70
2022-12-26T03:07:25.427Z,5.30
2022-12-26T03:10:10.864Z,5.45
2022-12-26T03:12:58.109Z,5.75
2022-12-26T03:15:27.498Z,5.60
2022-12-26T03:17:56.576Z,4.82
2022-12-26T03:20:27.260Z,6.00
2022-12-26T03:22:55.759Z,4.97
2022-12-26T03:25:43.532Z,4.97
2022-12-26T03:28:13.851Z,5.50
2022-12-26T03:30:49.812Z,6.00
2022-12-26T03:33:35.426Z,5.30
2022-12-26T03:36:04.563Z,5.18
2022-12-26T03:38:36.019Z,4.93
2022-12-26T03:41:25.099Z,4.63
2022-12-26T03:44:16.572Z,5.70
2022-12-26T03:47:07.496Z,4.00
2022-12-26T03:49:54.403Z,4.68
2022-12-26T03:52:42.540Z,4.07
2022-12-26T03:55:30.192Z,5.20
2022-12-26T03:58:20.420Z,4.82
2022-12-26T04:01:09.783Z,4.38
2022-12-26T04:03:56.454Z,4.18
2022-12-26T04:06:44.903Z,5.03
2022-12-26T04:09:33.483Z,5.10
2022-12-26T04:12:15.313Z,4.82
2022-12-26T04:15:02.679Z,4.95
2022-12-26T04:17:52.165Z,5.38
2022-12-26T04:20:21.585Z,4.28
2022-12-26T04:23:08.977Z,4.15
2022-12-26T04:25:57.646Z,4.95
2022-12-26T04:28:42.545Z,4.93
2022-12-26T04:31:30.094Z,4.80
2022-12-26T04:34:18.970Z,5.03
2022-12-26T04:37:07.105Z,4.43
2022-12-26T04:39:52.969Z,3.80
2022-12-26T04:42:40.572Z,4.45
2022-12-26T04:45:08.853Z,4.93
2022-12-26T04:47:36.348Z,3.90
2022-12-26T04:50:15.469Z,4.85
2022-12-26T04:53:01.576Z,4.18
2022-12-26T04:55:29.916Z,5.15
2022-12-26T04:57:58.866Z,5.22
2022-12-26T05:00:28.245Z,5.78
2022-12-26T05:03:18.715Z,5.93
2022-12-26T05:06:05.401Z,4.32
2022-12-26T05:08:52.220Z,4.07
2022-12-26T05:11:19.772Z,4.50
2022-12-26T05:13:48.631Z,4.85
2022-12-26T05:16:33.968Z,4.82
2022-12-26T05:19:20.713Z,4.63
2022-12-26T05:22:05.880Z,4.57
2022-12-26T05:24:52.676Z,4.18
2022-12-26T05:27:37.751Z,4.28
2022-12-26T05:30:07.776Z,3.90
2022-12-26T05:32:52.666Z,4.78
2022-12-26T05:35:20.600Z,4.68
2022-12-26T05:37:48.254Z,3.88
2022-12-26T05:40:15.775Z,4.20
2022-12-26T05:42:43.523Z,4.05
2022-12-26T05:45:12.778Z,4.03
2022-12-26T05:47:48.275Z,4.32
2022-12-26T05:50:19.114Z,3.55
2022-12-26T05:52:46.927Z,3.97
2022-12-26T05:55:14.410Z,4.63
2022-12-26T05:57:42.010Z,3.83
2022-12-26T06:00:12.333Z,3.75
2022-12-26T06:02:43.660Z,3.90
2022-12-26T06:05:13.011Z,3.55
2022-12-26T06:07:44.019Z,3.45
2022-12-26T06:10:11.831Z,4.00
2022-12-26T06:12:39.442Z,3.33
2022-12-26T06:15:07.973Z,3.72
2022-12-26T06:17:37.740Z,3.25
2022-12-26T06:20:07.406Z,3.53
2022-12-26T06:22:34.900Z,3.25
2022-12-26T06:25:04.898Z,3.72
2022-12-26T06:27:38.072Z,2.95
2022-12-26T06:30:18.967Z,3.57
2022-12-26T06:33:01.269Z,6.78
2022-12-26T06:35:30.182Z,3.30
2022-12-26T06:37:57.990Z,3.50
2022-12-26T06:40:34.684Z,3.10
2022-12-26T06:43:02.156Z,2.92
2022-12-26T06:45:29.707Z,3.70
2022-12-26T06:47:59.240Z,3.25
2022-12-26T06:50:27.076Z,3.47
2022-12-26T06:52:55.947Z,3.17
2022-12-26T06:55:23.565Z,3.20
2022-12-26T06:57:52.753Z,3.88
2022-12-26T07:00:20.287Z,4.15
2022-12-26T07:02:52.584Z,3.35
2022-12-26T07:05:20.291Z,3.80
2022-12-26T07:07:56.427Z,4.25
2022-12-26T07:10:25.457Z,3.92
2022-12-26T07:12:53.009Z,4.25
2022-12-26T07:15:20.541Z,4.65
2022-12-26T07:17:48.064Z,4.35
2022-12-26T07:20:15.721Z,5.22
2022-12-26T07:22:44.110Z,4.70
2022-12-26T07:25:11.716Z,3.70
2022-12-26T07:27:40.772Z,4.80
2022-12-26T07:30:09.067Z,4.15
2022-12-26T07:32:36.704Z,4.78
2022-12-26T07:35:06.629Z,4.35
2022-12-26T07:37:34.188Z,4.95
2022-12-26T07:40:04.061Z,4.85
2022-12-26T07:42:31.793Z,4.93
2022-12-26T07:45:00.687Z,5.10
2022-12-26T07:47:28.536Z,4.45
2022-12-26T07:49:56.044Z,5.05
2022-12-26T07:52:23.930Z,5.10
2022-12-26T07:54:51.409Z,4.93
2022-12-26T07:57:49.446Z,5.38
2022-12-26T08:00:08.786Z,6.03
2022-12-26T08:02:36.552Z,5.22
2022-12-26T08:05:04.273Z,5.28
2022-12-26T08:07:32.125Z,5.22
2022-12-26T08:09:59.601Z,5.93
2022-12-26T08:12:29.518Z,5.78
2022-12-26T08:14:56.979Z,6.10
2022-12-26T08:17:25.891Z,6.93
2022-12-26T08:19:53.436Z,6.78
2022-12-26T08:22:20.969Z,6.60
2022-12-26T08:24:48.534Z,6.85
2022-12-26T08:27:22.005Z,7.25
2022-12-26T08:29:49.908Z,6.45
2022-12-26T08:32:17.498Z,7.45
2022-12-26T08:34:46.410Z,8.20
2022-12-26T08:37:13.983Z,8.77
2022-12-26T08:39:41.560Z,7.28
2022-12-26T08:42:09.047Z,8.10
2022-12-26T08:44:36.651Z,8.23
2022-12-26T08:47:04.191Z,8.23
2022-12-26T08:49:31.720Z,9.05
2022-12-26T08:52:00.635Z,8.35
2022-12-26T08:54:28.377Z,8.63
2022-12-26T08:56:55.993Z,11.43
2022-12-26T08:59:24.215Z,9.48
2022-12-26T09:01:51.849Z,9.35
2022-12-26T09:04:19.527Z,9.75
2022-12-26T09:06:49.829Z,9.38
2022-12-26T09:09:18.720Z,10.35
2022-12-26T09:11:46.467Z,10.93
2022-12-26T09:14:14.031Z,10.82
2022-12-26T09:16:49.545Z,11.00
2022-12-26T09:19:20.856Z,12.55
2022-12-26T09:21:51.968Z,10.57
2022-12-26T09:24:29.596Z,9.15
2022-12-26T09:26:57.337Z,12.35
2022-12-26T09:29:24.815Z,14.05
2022-12-26T09:31:52.366Z,17.60
2022-12-26T09:34:19.869Z,16.55
2022-12-26T09:36:47.470Z,20.42
2022-12-26T09:39:22.267Z,18.63
2022-12-26T09:41:55.497Z,19.30
2022-12-26T09:44:24.993Z,19.80
2022-12-26T09:47:00.421Z,21.00
2022-12-26T09:49:31.038Z,20.73
2022-12-26T09:52:00.713Z,20.63
2022-12-26T09:54:41.443Z,22.92
2022-12-26T09:57:15.246Z,19.67
2022-12-26T09:59:45.589Z,20.75
2022-12-26T10:02:18.001Z,23.40
2022-12-26T10:04:45.718Z,23.20
2022-12-26T10:07:16.754Z,21.48
2022-12-26T10:09:53.932Z,23.60
2022-12-26T10:12:30.360Z,25.52
2022-12-26T10:14:58.535Z,22.05
2022-12-26T10:17:29.778Z,23.55
2022-12-26T10:20:02.245Z,24.17
2022-12-26T10:22:38.683Z,23.67
2022-12-26T10:25:14.816Z,23.98
2022-12-26T10:27:44.716Z,22.13
2022-12-26T10:30:16.658Z,20.60
2022-12-26T10:32:45.257Z,22.48
2022-12-26T10:35:23.614Z,23.13
2022-12-26T10:37:54.188Z,21.20
2022-12-26T10:40:25.031Z,24.55
2022-12-26T10:42:55.551Z,23.52
2022-12-26T10:45:28.228Z,23.80
2022-12-26T10:47:57.635Z,20.80
2022-12-26T10:50:28.040Z,21.63
2022-12-26T10:52:56.024Z,20.52
2022-12-26T10:55:31.483Z,22.50
2022-12-26T10:58:10.569Z,20.52
2022-12-26T11:00:47.511Z,21.27
2022-12-26T11:03:17.574Z,20.98
2022-12-26T11:08:43.292Z,20.70
2022-12-26T11:11:14.155Z,19.38
2022-12-26T11:13:47.480Z,19.77
2022-12-26T11:16:24.287Z,21.45
2022-12-26T11:18:54.164Z,22.58
2022-12-26T11:21:23.244Z,20.17
2022-12-26T11:23:52.636Z,19.95
2022-12-26T11:26:22.436Z,19.98
2022-12-26T11:29:05.393Z,18.27
2022-12-26T11:31:33.121Z,20.08
2022-12-26T11:34:09.531Z,21.02
2022-12-26T11:36:40.410Z,20.15
2022-12-26T11:39:22.094Z,20.45
2022-12-26T11:41:49.894Z,17.80
2022-12-26T11:44:21.311Z,16.15
2022-12-26T11:46:50.990Z,17.45
2022-12-26T11:49:19.650Z,18.45
2022-12-26T11:51:49.180Z,17.85
2022-12-26T11:54:23.570Z,18.17
2022-12-26T11:57:00.453Z,18.55
2022-12-26T11:59:29.506Z,15.70
2022-12-26T12:02:13.882Z,18.20
2022-12-26T12:04:43.868Z,13.68
2022-12-26T12:07:18.287Z,14.93
2022-12-26T12:09:49.705Z,14.73
2022-12-26T12:12:19.731Z,15.20
2022-12-26T12:15:01.745Z,17.95
2022-12-26T12:17:32.620Z,16.13
2022-12-26T12:20:16.460Z,14.45
2022-12-26T12:22:54.184Z,15.27
2022-12-26T12:25:27.081Z,15.73
2022-12-26T12:28:01.524Z,18.02
2022-12-26T12:30:38.877Z,15.75
2022-12-26T12:33:22.764Z,16.00
2022-12-26T12:35:58.272Z,15.85
2022-12-26T12:38:27.271Z,15.23
2022-12-26T12:41:02.326Z,14.27
2022-12-26T12:43:32.697Z,14.13
2022-12-26T12:46:10.649Z,13.98
2022-12-26T12:48:47.203Z,13.18
2022-12-26T12:51:18.447Z,13.07
2022-12-26T12:53:58.410Z,12.90
2022-12-26T12:56:29.060Z,12.77
2022-12-26T12:59:01.406Z,11.63
2022-12-26T13:01:34.612Z,12.45
2022-12-26T13:04:03.861Z,13.18
2022-12-26T13:06:35.976Z,12.82
2022-12-26T13:09:05.680Z,11.38
2022-12-26T13:11:34.615Z,11.77
2022-12-26T13:14:06.706Z,11.80
2022-12-26T13:16:43.371Z,12.40
2022-12-26T13:19:17.023Z,12.07
2022-12-26T13:21:46.233Z,12.38
2022-12-26T13:24:26.462Z,11.73
2022-12-26T13:26:59.103Z,12.00
2022-12-26T13:29:37.038Z,11.82
2022-12-26T13:32:14.990Z,12.35
2022-12-26T13:34:44.053Z,10.60
2022-12-26T13:37:57.431Z,9.55
2022-12-26T13:40:26.683Z,13.07
2022-12-26T13:43:14.108Z,11.75
2022-12-26T13:45:59.380Z,12.63
2022-12-26T13:48:45.522Z,12.30
2022-12-26T13:51:27.938Z,12.05
2022-12-26T13:54:00.518Z,11.73
2022-12-26T13:56:47.528Z,11.57
2022-12-26T13:59:19.072Z,11.90
2022-12-26T14:01:55.401Z,11.50
2022-12-26T14:04:34.556Z,13.00
2022-12-26T14:07:12.251Z,12.77
2022-12-26T14:09:58.418Z,14.63
2022-12-26T14:12:34.671Z,12.95
2022-12-26T14:15:06.933Z,16.02
2022-12-26T14:17:38.968Z,18.70
2022-12-26T14:20:13.574Z,16.45
2022-12-26T14:22:45.529Z,15.30
2022-12-26T14:25:19.961Z,17.80
2022-12-26T14:27:52.439Z,17.85
2022-12-26T14:30:25.306Z,19.25
2022-12-26T14:33:01.958Z,19.13
2022-12-26T14:35:32.317Z,19.88
2022-12-26T14:38:05.137Z,18.60
2022-12-26T14:40:36.037Z,18.27
2022-12-26T14:43:14.598Z,16.63
2022-12-26T14:45:44.273Z,19.15
2022-12-26T14:48:31.577Z,17.80
2022-12-26T14:51:28.287Z,16.60
2022-12-26T14:54:18.133Z,15.52
2022-12-26T14:56:47.618Z,16.00
2022-12-26T14:59:27.182Z,17.25
2022-12-26T15:02:02.808Z,15.13
2022-12-26T15:04:57.301Z,14.50
2022-12-26T15:07:42.940Z,14.90
2022-12-26T15:10:19.004Z,14.75
2022-12-26T15:13:07.568Z,15.82
2022-12-26T15:15:39.295Z,14.68
2022-12-26T15:18:25.302Z,16.75
2022-12-26T15:21:03.228Z,14.27
2022-12-26T15:23:46.733Z,17.75
2022-12-26T15:26:25.708Z,14.67
2022-12-26T15:29:20.403Z,15.68
2022-12-26T15:34:29.885Z,14.73
2022-12-26T15:37:01.664Z,14.18
2022-12-26T15:39:34.375Z,15.02
2022-12-26T15:42:07.497Z,13.80
2022-12-26T15:44:40.697Z,11.90
2022-12-26T15:47:27.160Z,12.03
2022-12-26T15:50:05.084Z,10.75
2022-12-26T15:52:41.872Z,11.77
2022-12-26T15:55:16.676Z,11.95
2022-12-26T15:57:50.249Z,10.27
2022-12-26T16:00:19.668Z,11.15
2022-12-26T16:02:49.773Z,9.80
2022-12-26T16:05:44.427Z,9.27
2022-12-26T16:08:26.819Z,9.88
2022-12-26T16:11:09.789Z,9.30
2022-12-26T16:13:49.262Z,9.40
2022-12-26T16:16:24.582Z,9.25
2022-12-26T16:18:52.309Z,9.00
2022-12-26T16:21:38.295Z,9.75
2022-12-26T16:24:08.895Z,10.82
2022-12-26T16:26:40.371Z,9.52
2022-12-26T16:29:11.128Z,10.30
2022-12-26T16:31:39.933Z,10.05
2022-12-26T16:34:07.662Z,9.32
2022-12-26T16:36:36.651Z,8.98
2022-12-26T16:39:15.371Z,10.27
2022-12-26T16:41:58.189Z,9.75
2022-12-26T16:44:31.146Z,9.65
2022-12-26T16:47:01.346Z,10.20
2022-12-26T16:49:29.687Z,10.98
2022-12-26T16:51:57.478Z,9.70
2022-12-26T16:54:29.514Z,9.93
2022-12-26T16:57:02.536Z,10.98
2022-12-26T16:59:35.961Z,11.13
2022-12-26T17:02:03.867Z,11.15
2022-12-26T17:04:32.013Z,10.13
2022-12-26T17:07:01.605Z,12.65
2022-12-26T17:09:31.321Z,11.57
2022-12-26T17:12:01.541Z,12.13
2022-12-26T17:14:30.063Z,11.63
2022-12-26T17:16:59.440Z,11.82
2022-12-26T17:19:31.917Z,11.10
2022-12-26T17:22:18.527Z,10.68
2022-12-26T17:24:47.416Z,12.85
2022-12-26T17:27:19.438Z,10.63
2022-12-26T17:29:51.857Z,8.70
2022-12-26T17:32:28.560Z,9.20
2022-12-26T17:34:56.197Z,9.60
2022-12-26T17:37:25.759Z,9.90
2022-12-26T17:39:59.064Z,11.75
2022-12-26T17:42:32.171Z,9.30
2022-12-26T17:44:59.946Z,10.43
2022-12-26T17:47:29.589Z,9.23
2022-12-26T17:49:58.016Z,10.57
2022-12-26T17:55:25.345Z,10.73
2022-12-26T17:57:53.907Z,10.40
2022-12-26T18:00:22.362Z,10.85
2022-12-26T18:03:06.785Z,10.80
2022-12-26T18:05:34.772Z,12.23
2022-12-26T18:08:10.002Z,10.27
2022-12-26T18:10:38.127Z,11.25
2022-12-26T18:13:07.683Z,12.18
2022-12-26T18:15:35.231Z,11.88
2022-12-26T18:18:04.795Z,11.23
2022-12-26T18:20:32.662Z,12.93
2022-12-26T18:23:00.191Z,10.85
2022-12-26T18:25:28.953Z,12.55
2022-12-26T18:27:56.610Z,12.77
2022-12-26T18:30:25.782Z,12.00
2022-12-26T18:32:55.605Z,14.57
2022-12-26T18:35:24.907Z,13.85
2022-12-26T18:37:53.550Z,12.00
2022-12-26T18:40:27.617Z,15.00
2022-12-26T18:45:22.607Z,13.13
2022-12-26T18:47:50.229Z,12.25
2022-12-26T18:50:18.162Z,13.52
2022-12-26T18:52:53.175Z,10.95
2022-12-26T18:55:21.304Z,12.23
2022-12-26T18:57:48.836Z,12.32
2022-12-26T19:00:17.704Z,12.73
2022-12-26T19:02:45.900Z,13.43
2022-12-26T19:05:16.677Z,13.45
2022-12-26T19:07:45.901Z,12.68
2022-12-26T19:10:15.206Z,12.07
2022-12-26T19:12:42.858Z,12.70
2022-12-26T19:15:10.966Z,14.75
2022-12-26T19:18:04.850Z,13.68
2022-12-26T19:20:43.730Z,12.25
2022-12-26T19:23:15.804Z,13.13
2022-12-26T19:25:44.881Z,12.52
2022-12-26T19:28:12.341Z,13.68
2022-12-26T19:30:39.864Z,12.27
2022-12-26T19:33:08.027Z,13.10
2022-12-26T19:35:35.602Z,11.70
2022-12-26T19:38:06.155Z,12.90
2022-12-26T19:40:33.641Z,10.30
2022-12-26T19:43:03.635Z,12.98
2022-12-26T19:45:31.192Z,11.02
2022-12-26T19:47:58.795Z,12.98
2022-12-26T19:50:36.039Z,10.98
2022-12-26T19:53:03.649Z,12.13
2022-12-26T19:55:31.269Z,12.38
2022-12-26T19:57:58.771Z,11.43
2022-12-26T20:00:29.701Z,11.77
2022-12-26T20:03:00.456Z,12.73
2022-12-26T20:05:43.343Z,14.20
2022-12-26T20:08:21.635Z,10.88
2022-12-26T20:10:49.659Z,11.65
2022-12-26T20:13:18.049Z,10.07
2022-12-26T20:15:47.005Z,11.18
2022-12-26T20:18:24.694Z,11.38
2022-12-26T20:23:45.151Z,11.00
2022-12-26T20:26:16.087Z,11.88
2022-12-26T20:28:44.012Z,13.23
2022-12-26T20:31:19.603Z,11.52
2022-12-26T20:33:48.070Z,10.85
2022-12-26T20:36:16.922Z,10.25
2022-12-26T20:38:45.120Z,11.48
2022-12-26T20:41:12.977Z,11.18
2022-12-26T20:43:40.924Z,10.85
2022-12-26T20:46:09.050Z,9.88
2022-12-26T20:48:38.220Z,10.73
2022-12-26T20:51:07.017Z,11.45
2022-12-26T20:53:36.502Z,11.63
2022-12-26T20:56:07.740Z,10.88
2022-12-26T20:58:36.129Z,10.52
2022-12-26T21:01:07.127Z,10.60
2022-12-26T21:03:38.877Z,12.20
2022-12-26T21:06:08.652Z,11.05
2022-12-26T21:08:36.911Z,9.93
2022-12-26T21:11:12.990Z,10.68
2022-12-26T21:13:40.955Z,10.57
2022-12-26T21:16:10.137Z,8.82
2022-12-26T21:18:37.831Z,10.05
2022-12-26T21:21:06.138Z,9.65
2022-12-26T21:23:35.404Z,10.05
2022-12-26T21:26:03.108Z,9.43
2022-12-26T21:28:30.686Z,9.43
2022-12-26T21:30:58.251Z,9.00
2022-12-26T21:33:26.092Z,9.15
2022-12-26T21:35:54.836Z,9.60
2022-12-26T21:38:23.108Z,8.23
2022-12-26T21:40:52.139Z,9.70
2022-12-26T21:43:19.681Z,9.05
2022-12-26T21:45:47.286Z,9.23
2022-12-26T21:48:14.819Z,8.75
2022-12-26T21:50:44.832Z,8.98
2022-12-26T21:53:12.425Z,9.13
2022-12-26T21:55:38.985Z,8.30
2022-12-26T21:58:07.864Z,9.30
2022-12-26T22:00:36.148Z,8.48
2022-12-26T22:03:21.553Z,10.15
2022-12-26T22:05:49.290Z,8.50
2022-12-26T22:08:16.865Z,9.50
2022-12-26T22:11:03.119Z,8.98
2022-12-26T22:13:38.035Z,7.90
2022-12-26T22:16:10.147Z,8.35
2022-12-26T22:18:39.292Z,9.05
2022-12-26T22:21:08.173Z,8.45
2022-12-26T22:23:36.430Z,9.05
2022-12-26T22:26:04.251Z,8.60
2022-12-26T22:28:33.120Z,11.07
2022-12-26T22:31:01.388Z,8.73
2022-12-26T22:33:29.657Z,7.68
2022-12-26T22:36:03.902Z,9.27
2022-12-26T22:38:32.223Z,9.13
2022-12-26T22:41:00.214Z,8.82
2022-12-26T22:43:28.345Z,9.60
2022-12-26T22:45:58.870Z,7.63
2022-12-26T22:48:26.512Z,7.47
2022-12-26T22:50:54.816Z,10.23
2022-12-26T22:53:23.689Z,6.13
2022-12-26T22:55:52.929Z,9.80
2022-12-26T22:58:20.470Z,9.07
2022-12-26T23:00:48.037Z,7.97
2022-12-26T23:03:17.057Z,9.55
2022-12-26T23:05:45.018Z,9.20
2022-12-26T23:08:16.370Z,8.00
2022-12-26T23:10:44.351Z,9.52
2022-12-26T23:13:12.360Z,7.38
2022-12-26T23:15:46.669Z,9.45
2022-12-26T23:18:36.878Z,9.10
2022-12-26T23:21:26.399Z,8.40
2022-12-26T23:23:54.259Z,8.65
2022-12-26T23:26:21.775Z,9.25
2022-12-26T23:29:06.707Z,10.00
2022-12-26T23:31:37.172Z,8.40
2022-12-26T23:34:04.714Z,8.73
2022-12-26T23:36:33.586Z,8.00
2022-12-26T23:39:01.100Z,9.05
2022-12-26T23:41:28.657Z,8.02
2022-12-26T23:43:56.182Z,7.63
2022-12-26T23:46:23.764Z,7.45
2022-12-26T23:48:51.307Z,7.97
2022-12-26T23:51:18.874Z,9.10
2022-12-26T23:53:47.788Z,7.82
2022-12-26T23:56:15.344Z,7.78
2022-12-26T23:58:42.896Z,7.82
